sensor_id;sensor_type;location;lat;lon;timestamp;pressure;altitude;pressure_sealevel;temperature;humidity
41624;BME280;27319;50.306;18.926;2023-01-29T00:01:58;99081.00;;;-0.68;87.28
41624;BME280;27319;50.306;18.926;2023-01-29T00:05:59;99081.63;;;-0.63;87.09
41624;BME280;27319;50.306;18.926;2023-01-29T00:10:00;99082.00;;;-0.71;87.02
41624;BME280;27319;50.306;18.926;2023-01-29T00:13:28;99068.16;;;-0.91;87.86
41624;BME280;27319;50.306;18.926;2023-01-29T00:16:29;99082.56;;;-0.98;87.97
41624;BME280;27319;50.306;18.926;2023-01-29T00:19:50;99084.50;;;-1.02;86.55
41624;BME280;27319;50.306;18.926;2023-01-29T00:23:34;99078.38;;;-1.02;87.10
41624;BME280;27319;50.306;18.926;2023-01-29T00:26:35;99090.59;;;-1.01;88.14
41624;BME280;27319;50.306;18.926;2023-01-29T00:29:38;99085.19;;;-0.81;87.40
41624;BME280;27319;50.306;18.926;2023-01-29T00:33:19;99090.28;;;-0.95;87.59
41624;BME280;27319;50.306;18.926;2023-01-29T00:37:20;99100.38;;;-0.86;87.30
41624;BME280;27319;50.306;18.926;2023-01-29T00:44:32;99087.50;;;-1.09;88.00
41624;BME280;27319;50.306;18.926;2023-01-29T00:48:11;99097.88;;;-1.06;87.82
41624;BME280;27319;50.306;18.926;2023-01-29T00:52:12;99097.34;;;-1.13;86.82
41624;BME280;27319;50.306;18.926;2023-01-29T00:55:45;99112.91;;;-1.08;87.01
41624;BME280;27319;50.306;18.926;2023-01-29T00:59:46;99111.31;;;-1.29;87.39
41624;BME280;27319;50.306;18.926;2023-01-29T01:03:30;99114.81;;;-1.29;87.02
41624;BME280;27319;50.306;18.926;2023-01-29T01:06:53;99124.69;;;-1.15;87.17
41624;BME280;27319;50.306;18.926;2023-01-29T01:10:57;99115.38;;;-1.22;87.31
41624;BME280;27319;50.306;18.926;2023-01-29T01:14:57;99107.50;;;-1.22;86.49
41624;BME280;27319;50.306;18.926;2023-01-29T01:18:58;99108.94;;;-1.52;85.32
41624;BME280;27319;50.306;18.926;2023-01-29T01:22:54;99090.72;;;-1.38;86.29
41624;BME280;27319;50.306;18.926;2023-01-29T01:26:55;99090.09;;;-1.43;85.87
41624;BME280;27319;50.306;18.926;2023-01-29T01:30:56;99094.06;;;-1.53;84.59
41624;BME280;27319;50.306;18.926;2023-01-29T01:34:12;99096.41;;;-1.47;86.48
41624;BME280;27319;50.306;18.926;2023-01-29T01:37:33;99099.56;;;-1.39;86.07
41624;BME280;27319;50.306;18.926;2023-01-29T01:41:34;99101.53;;;-1.44;84.98
41624;BME280;27319;50.306;18.926;2023-01-29T01:45:47;99085.28;;;-1.35;86.66
41624;BME280;27319;50.306;18.926;2023-01-29T01:49:48;99086.44;;;-1.41;85.37
41624;BME280;27319;50.306;18.926;2023-01-29T01:57:31;99073.53;;;-1.45;84.68
41624;BME280;27319;50.306;18.926;2023-01-29T02:00:32;99064.13;;;-1.51;84.95
41624;BME280;27319;50.306;18.926;2023-01-29T02:04:06;99064.06;;;-1.49;83.61
41624;BME280;27319;50.306;18.926;2023-01-29T02:07:46;99056.16;;;-1.49;82.76
41624;BME280;27319;50.306;18.926;2023-01-29T02:11:07;99070.03;;;-1.64;83.03
41624;BME280;27319;50.306;18.926;2023-01-29T02:14:08;99066.81;;;-1.52;84.23
41624;BME280;27319;50.306;18.926;2023-01-29T02:17:15;99070.09;;;-1.47;82.66
41624;BME280;27319;50.306;18.926;2023-01-29T02:20:22;99057.31;;;-1.55;81.73
41624;BME280;27319;50.306;18.926;2023-01-29T02:23:42;99045.50;;;-1.46;79.93
41624;BME280;27319;50.306;18.926;2023-01-29T02:34:21;99041.97;;;-1.64;80.62
41624;BME280;27319;50.306;18.926;2023-01-29T02:45:43;99061.44;;;-1.68;80.96
41624;BME280;27319;50.306;18.926;2023-01-29T02:49:09;99064.31;;;-1.72;81.04
41624;BME280;27319;50.306;18.926;2023-01-29T02:59:21;99076.69;;;-1.74;80.69
41624;BME280;27319;50.306;18.926;2023-01-29T03:06:01;99065.03;;;-1.87;78.45
41624;BME280;27319;50.306;18.926;2023-01-29T03:09:16;99066.88;;;-1.89;78.84
41624;BME280;27319;50.306;18.926;2023-01-29T03:12:22;99065.19;;;-1.90;79.93
41624;BME280;27319;50.306;18.926;2023-01-29T03:15:39;99077.81;;;-1.98;78.12
41624;BME280;27319;50.306;18.926;2023-01-29T03:22:51;99090.44;;;-1.86;78.55
41624;BME280;27319;50.306;18.926;2023-01-29T03:26:28;99093.53;;;-1.78;80.15
41624;BME280;27319;50.306;18.926;2023-01-29T03:30:07;99095.19;;;-1.76;80.29
41624;BME280;27319;50.306;18.926;2023-01-29T03:34:02;99084.25;;;-1.85;76.91
41624;BME280;27319;50.306;18.926;2023-01-29T03:37:14;99073.44;;;-1.98;79.25
41624;BME280;27319;50.306;18.926;2023-01-29T03:40:18;99075.28;;;-2.00;77.52
41624;BME280;27319;50.306;18.926;2023-01-29T03:43:49;99070.28;;;-1.87;79.71
41624;BME280;27319;50.306;18.926;2023-01-29T03:47:01;99069.50;;;-2.08;78.00
41624;BME280;27319;50.306;18.926;2023-01-29T03:50:31;99074.00;;;-1.91;81.61
41624;BME280;27319;50.306;18.926;2023-01-29T03:58:07;99060.75;;;-1.90;81.63
41624;BME280;27319;50.306;18.926;2023-01-29T04:01:20;99057.22;;;-2.07;78.05
41624;BME280;27319;50.306;18.926;2023-01-29T04:04:26;99050.38;;;-2.11;79.17
41624;BME280;27319;50.306;18.926;2023-01-29T04:07:29;99060.97;;;-1.94;80.54
41624;BME280;27319;50.306;18.926;2023-01-29T04:10:48;99056.00;;;-2.00;79.17
41624;BME280;27319;50.306;18.926;2023-01-29T04:13:51;99062.19;;;-2.01;79.01
41624;BME280;27319;50.306;18.926;2023-01-29T04:16:54;99048.69;;;-1.94;80.24
41624;BME280;27319;50.306;18.926;2023-01-29T04:19:59;99041.97;;;-1.82;79.86
41624;BME280;27319;50.306;18.926;2023-01-29T04:23:00;99038.72;;;-1.87;79.56
41624;BME280;27319;50.306;18.926;2023-01-29T04:26:18;99031.03;;;-1.73;81.00
41624;BME280;27319;50.306;18.926;2023-01-29T04:29:59;99030.41;;;-1.78;82.14
41624;BME280;27319;50.306;18.926;2023-01-29T04:34:03;99013.84;;;-1.80;81.70
41624;BME280;27319;50.306;18.926;2023-01-29T04:37:07;98999.28;;;-1.70;84.68
41624;BME280;27319;50.306;18.926;2023-01-29T04:44:30;99003.63;;;-1.86;79.08
41624;BME280;27319;50.306;18.926;2023-01-29T04:48:29;98994.34;;;-1.76;80.42
41624;BME280;27319;50.306;18.926;2023-01-29T04:55:27;98992.50;;;-1.74;80.14
41624;BME280;27319;50.306;18.926;2023-01-29T04:58:39;98983.28;;;-1.83;78.88
41624;BME280;27319;50.306;18.926;2023-01-29T05:01:42;98985.66;;;-1.78;81.44
41624;BME280;27319;50.306;18.926;2023-01-29T05:04:52;98985.28;;;-1.88;77.37
41624;BME280;27319;50.306;18.926;2023-01-29T05:07:55;98983.88;;;-1.95;78.08
41624;BME280;27319;50.306;18.926;2023-01-29T05:10:58;98990.94;;;-1.78;81.91
41624;BME280;27319;50.306;18.926;2023-01-29T05:14:19;99000.66;;;-1.97;77.81
41624;BME280;27319;50.306;18.926;2023-01-29T05:18:00;98995.44;;;-1.80;81.62
41624;BME280;27319;50.306;18.926;2023-01-29T05:21:04;99001.47;;;-1.78;82.05
41624;BME280;27319;50.306;18.926;2023-01-29T05:24:16;98999.59;;;-1.76;82.32
41624;BME280;27319;50.306;18.926;2023-01-29T05:27:37;99000.75;;;-1.82;82.57
41624;BME280;27319;50.306;18.926;2023-01-29T05:31:53;99001.88;;;-1.87;80.31
41624;BME280;27319;50.306;18.926;2023-01-29T05:35:55;98999.59;;;-1.76;81.78
41624;BME280;27319;50.306;18.926;2023-01-29T05:39:35;98990.00;;;-1.77;82.16
41624;BME280;27319;50.306;18.926;2023-01-29T05:42:36;98985.44;;;-1.74;80.83
41624;BME280;27319;50.306;18.926;2023-01-29T05:45:37;98994.63;;;-1.82;82.04
41624;BME280;27319;50.306;18.926;2023-01-29T05:48:38;98991.63;;;-1.75;82.89
41624;BME280;27319;50.306;18.926;2023-01-29T05:51:39;98997.59;;;-1.71;82.48
41624;BME280;27319;50.306;18.926;2023-01-29T05:54:40;99004.78;;;-1.75;80.24
41624;BME280;27319;50.306;18.926;2023-01-29T05:57:41;99001.03;;;-1.69;81.85
41624;BME280;27319;50.306;18.926;2023-01-29T06:00:42;98999.47;;;-1.73;80.15
41624;BME280;27319;50.306;18.926;2023-01-29T06:04:02;98997.91;;;-1.77;80.49
41624;BME280;27319;50.306;18.926;2023-01-29T06:08:03;99011.56;;;-1.88;80.70
41624;BME280;27319;50.306;18.926;2023-01-29T06:11:44;99007.44;;;-1.93;81.90
41624;BME280;27319;50.306;18.926;2023-01-29T06:14:45;99006.25;;;-1.86;80.59
41624;BME280;27319;50.306;18.926;2023-01-29T06:18:06;99007.88;;;-1.84;81.58
41624;BME280;27319;50.306;18.926;2023-01-29T06:22:07;99004.94;;;-1.78;80.92
41624;BME280;27319;50.306;18.926;2023-01-29T06:25:48;99016.13;;;-1.91;79.39
41624;BME280;27319;50.306;18.926;2023-01-29T06:29:04;99020.31;;;-1.87;80.76
41624;BME280;27319;50.306;18.926;2023-01-29T06:32:26;99012.91;;;-1.79;79.83
41624;BME280;27319;50.306;18.926;2023-01-29T06:36:06;99018.22;;;-1.62;80.24
41624;BME280;27319;50.306;18.926;2023-01-29T06:39:07;99021.50;;;-1.76;81.25
41624;BME280;27319;50.306;18.926;2023-01-29T06:42:08;99018.94;;;-1.77;80.80
41624;BME280;27319;50.306;18.926;2023-01-29T06:45:10;99022.63;;;-1.81;82.01
41624;BME280;27319;50.306;18.926;2023-01-29T06:48:11;99013.09;;;-1.65;81.67
41624;BME280;27319;50.306;18.926;2023-01-29T06:51:12;99020.63;;;-1.76;82.25
41624;BME280;27319;50.306;18.926;2023-01-29T06:54:13;99021.50;;;-1.76;83.08
41624;BME280;27319;50.306;18.926;2023-01-29T06:57:14;99021.16;;;-1.87;83.37
41624;BME280;27319;50.306;18.926;2023-01-29T07:00:15;99023.78;;;-1.68;83.83
41624;BME280;27319;50.306;18.926;2023-01-29T07:03:16;99027.91;;;-1.81;84.30
41624;BME280;27319;50.306;18.926;2023-01-29T07:06:18;99027.59;;;-1.75;85.31
41624;BME280;27319;50.306;18.926;2023-01-29T07:09:18;99034.03;;;-1.99;86.83
41624;BME280;27319;50.306;18.926;2023-01-29T07:12:19;99026.06;;;-1.79;86.69
41624;BME280;27319;50.306;18.926;2023-01-29T07:15:20;99028.66;;;-1.96;87.64
41624;BME280;27319;50.306;18.926;2023-01-29T07:18:22;99031.22;;;-1.95;88.06
41624;BME280;27319;50.306;18.926;2023-01-29T07:21:42;99035.09;;;-1.85;87.96
41624;BME280;27319;50.306;18.926;2023-01-29T07:25:24;99042.28;;;-1.88;88.14
41624;BME280;27319;50.306;18.926;2023-01-29T07:28:25;99041.34;;;-1.87;88.60
41624;BME280;27319;50.306;18.926;2023-01-29T07:31:46;99034.88;;;-1.80;87.97
41624;BME280;27319;50.306;18.926;2023-01-29T07:35:27;99029.63;;;-1.80;88.49
41624;BME280;27319;50.306;18.926;2023-01-29T07:38:28;99039.41;;;-1.65;88.05
41624;BME280;27319;50.306;18.926;2023-01-29T07:41:29;99054.22;;;-1.81;88.30
41624;BME280;27319;50.306;18.926;2023-01-29T07:44:29;99051.38;;;-1.95;87.82
41624;BME280;27319;50.306;18.926;2023-01-29T07:47:30;99047.59;;;-1.90;87.59
41624;BME280;27319;50.306;18.926;2023-01-29T07:50:32;99054.38;;;-1.84;87.21
41624;BME280;27319;50.306;18.926;2023-01-29T07:53:34;99054.38;;;-1.84;87.12
41624;BME280;27319;50.306;18.926;2023-01-29T07:56:36;99074.84;;;-1.72;87.31
41624;BME280;27319;50.306;18.926;2023-01-29T07:59:57;99073.56;;;-1.82;88.22
41624;BME280;27319;50.306;18.926;2023-01-29T08:03:58;99072.84;;;-1.86;89.09
41624;BME280;27319;50.306;18.926;2023-01-29T08:07:59;99084.84;;;-1.62;87.20
41624;BME280;27319;50.306;18.926;2023-01-29T08:11:40;99082.91;;;-1.58;86.89
41624;BME280;27319;50.306;18.926;2023-01-29T08:14:40;99087.34;;;-1.59;86.90
41624;BME280;27319;50.306;18.926;2023-01-29T08:17:41;99085.25;;;-1.52;86.37
41624;BME280;27319;50.306;18.926;2023-01-29T08:20:43;99078.94;;;-1.67;86.24
41624;BME280;27319;50.306;18.926;2023-01-29T08:24:04;99086.00;;;-1.67;85.59
41624;BME280;27319;50.306;18.926;2023-01-29T08:27:27;99090.84;;;-1.95;85.48
41624;BME280;27319;50.306;18.926;2023-01-29T08:30:47;99090.75;;;-1.75;86.12
41624;BME280;27319;50.306;18.926;2023-01-29T08:34:48;99101.44;;;-1.60;85.51
41624;BME280;27319;50.306;18.926;2023-01-29T08:38:49;99104.72;;;-1.73;85.57
41624;BME280;27319;50.306;18.926;2023-01-29T08:42:50;99090.75;;;-1.75;85.57
41624;BME280;27319;50.306;18.926;2023-01-29T08:46:51;99104.25;;;-1.64;85.26
41624;BME280;27319;50.306;18.926;2023-01-29T08:50:51;99094.53;;;-1.62;84.97
41624;BME280;27319;50.306;18.926;2023-01-29T08:54:52;99088.75;;;-1.70;83.18
41624;BME280;27319;50.306;18.926;2023-01-29T08:58:53;99093.16;;;-1.52;84.09
41624;BME280;27319;50.306;18.926;2023-01-29T09:02:54;99079.91;;;-1.51;83.96
41624;BME280;27319;50.306;18.926;2023-01-29T09:06:55;99061.28;;;-1.46;82.87
41624;BME280;27319;50.306;18.926;2023-01-29T09:10:36;99053.41;;;-1.46;81.80
41624;BME280;27319;50.306;18.926;2023-01-29T09:13:56;99045.69;;;-1.51;82.26
41624;BME280;27319;50.306;18.926;2023-01-29T09:17:37;99051.63;;;-1.64;82.66
41624;BME280;27319;50.306;18.926;2023-01-29T09:20:58;99046.56;;;-1.50;81.94
41624;BME280;27319;50.306;18.926;2023-01-29T09:24:39;99055.81;;;-1.60;80.89
41624;BME280;27319;50.306;18.926;2023-01-29T09:27:59;99060.16;;;-1.59;79.74
41624;BME280;27319;50.306;18.926;2023-01-29T09:32:00;99066.25;;;-1.40;79.58
41624;BME280;27319;50.306;18.926;2023-01-29T09:36:02;99063.19;;;-1.50;79.51
41624;BME280;27319;50.306;18.926;2023-01-29T09:40:02;99067.31;;;-1.44;78.53
41624;BME280;27319;50.306;18.926;2023-01-29T09:47:59;99060.66;;;-1.51;78.60
41624;BME280;27319;50.306;18.926;2023-01-29T09:55:26;99046.72;;;-1.36;79.64
41624;BME280;27319;50.306;18.926;2023-01-29T09:59:28;99048.91;;;-1.44;80.42
41624;BME280;27319;50.306;18.926;2023-01-29T10:07:31;99020.78;;;-1.27;78.46
41624;BME280;27319;50.306;18.926;2023-01-29T10:26:54;98982.16;;;-1.26;75.22
41624;BME280;27319;50.306;18.926;2023-01-29T10:30:56;98974.72;;;-1.35;75.54
41624;BME280;27319;50.306;18.926;2023-01-29T10:35:03;98967.81;;;-1.21;75.62
41624;BME280;27319;50.306;18.926;2023-01-29T10:38:45;98968.31;;;-1.30;75.53
41624;BME280;27319;50.306;18.926;2023-01-29T10:45:53;98942.97;;;-1.15;74.56
41624;BME280;27319;50.306;18.926;2023-01-29T10:57:51;98928.88;;;-1.31;74.51
41624;BME280;27319;50.306;18.926;2023-01-29T11:01:23;98921.72;;;-1.29;75.21
41624;BME280;27319;50.306;18.926;2023-01-29T11:05:27;98907.66;;;-1.28;75.47
41624;BME280;27319;50.306;18.926;2023-01-29T11:12:58;98892.06;;;-1.16;75.90
41624;BME280;27319;50.306;18.926;2023-01-29T11:16:58;98883.72;;;-0.91;75.86
41624;BME280;27319;50.306;18.926;2023-01-29T11:21:03;98876.31;;;-1.00;75.36
41624;BME280;27319;50.306;18.926;2023-01-29T11:24:43;98881.84;;;-0.89;73.50
41624;BME280;27319;50.306;18.926;2023-01-29T11:31:25;98875.16;;;-0.79;73.41
41624;BME280;27319;50.306;18.926;2023-01-29T11:38:35;98860.19;;;-0.94;72.35
41624;BME280;27319;50.306;18.926;2023-01-29T11:44:55;98869.97;;;-1.13;72.24
41624;BME280;27319;50.306;18.926;2023-01-29T11:47:57;98872.91;;;-1.02;72.03
41624;BME280;27319;50.306;18.926;2023-01-29T11:50:59;98870.25;;;-1.02;72.08
41624;BME280;27319;50.306;18.926;2023-01-29T11:54:24;98865.47;;;-0.94;71.53
41624;BME280;27319;50.306;18.926;2023-01-29T11:58:31;98868.66;;;-0.89;71.34
41624;BME280;27319;50.306;18.926;2023-01-29T12:05:55;98851.16;;;-0.75;70.72
41624;BME280;27319;50.306;18.926;2023-01-29T12:09:56;98857.22;;;-0.57;71.41
41624;BME280;27319;50.306;18.926;2023-01-29T12:13:57;98844.66;;;-0.52;69.95
41624;BME280;27319;50.306;18.926;2023-01-29T12:21:49;98844.19;;;-0.60;70.21
41624;BME280;27319;50.306;18.926;2023-01-29T12:25:43;98836.19;;;-0.43;70.14
41624;BME280;27319;50.306;18.926;2023-01-29T12:32:40;98823.03;;;-0.28;68.96
41624;BME280;27319;50.306;18.926;2023-01-29T12:36:43;98823.50;;;-0.22;68.99
41624;BME280;27319;50.306;18.926;2023-01-29T12:39:52;98814.75;;;-0.38;69.52
41624;BME280;27319;50.306;18.926;2023-01-29T12:42:56;98817.19;;;-0.48;70.01
41624;BME280;27319;50.306;18.926;2023-01-29T12:46:02;98817.84;;;-0.29;70.28
41624;BME280;27319;50.306;18.926;2023-01-29T12:49:12;98810.81;;;-0.15;69.52
41624;BME280;27319;50.306;18.926;2023-01-29T12:52:20;98810.66;;;-0.28;69.54
41624;BME280;27319;50.306;18.926;2023-01-29T12:55:45;98797.44;;;-0.41;70.45
41624;BME280;27319;50.306;18.926;2023-01-29T12:59:33;98800.88;;;-0.10;69.17
41624;BME280;27319;50.306;18.926;2023-01-29T13:07:05;98804.34;;;-0.10;69.59
41624;BME280;27319;50.306;18.926;2023-01-29T13:11:00;98796.53;;;-0.11;69.14
41624;BME280;27319;50.306;18.926;2023-01-29T13:15:12;98784.88;;;-0.22;69.71
41624;BME280;27319;50.306;18.926;2023-01-29T13:22:46;98787.81;;;-0.27;69.91
41624;BME280;27319;50.306;18.926;2023-01-29T13:26:27;98786.34;;;-0.32;70.93
41624;BME280;27319;50.306;18.926;2023-01-29T13:30:22;98776.44;;;-0.13;70.33
41624;BME280;27319;50.306;18.926;2023-01-29T13:34:22;98773.75;;;-0.28;70.84
41624;BME280;27319;50.306;18.926;2023-01-29T13:38:23;98767.41;;;-0.10;70.55
41624;BME280;27319;50.306;18.926;2023-01-29T13:42:23;98758.38;;;-0.06;70.53
41624;BME280;27319;50.306;18.926;2023-01-29T13:46:26;98756.00;;;-0.10;70.48
41624;BME280;27319;50.306;18.926;2023-01-29T13:50:29;98745.31;;;-0.22;71.57
41624;BME280;27319;50.306;18.926;2023-01-29T13:54:28;98734.25;;;-0.13;71.31
41624;BME280;27319;50.306;18.926;2023-01-29T14:02:20;98743.44;;;-0.21;72.52
41624;BME280;27319;50.306;18.926;2023-01-29T14:11:35;98741.94;;;-0.24;72.62
41624;BME280;27319;50.306;18.926;2023-01-29T14:21:31;98744.03;;;-0.45;72.48
41624;BME280;27319;50.306;18.926;2023-01-29T14:25:16;98740.38;;;-0.42;73.08
41624;BME280;27319;50.306;18.926;2023-01-29T14:28:41;98740.78;;;-0.34;72.74
41624;BME280;27319;50.306;18.926;2023-01-29T14:32:45;98738.13;;;-0.34;71.70
41624;BME280;27319;50.306;18.926;2023-01-29T14:36:24;98748.28;;;-0.42;72.68
41624;BME280;27319;50.306;18.926;2023-01-29T14:39:52;98741.78;;;-0.37;72.46
41624;BME280;27319;50.306;18.926;2023-01-29T14:44:45;98737.06;;;-0.61;72.80
41624;BME280;27319;50.306;18.926;2023-01-29T14:50:57;98734.44;;;-0.46;72.94
41624;BME280;27319;50.306;18.926;2023-01-29T14:57:16;98742.69;;;-0.67;73.72
41624;BME280;27319;50.306;18.926;2023-01-29T15:00:44;98744.38;;;-0.66;72.76
41624;BME280;27319;50.306;18.926;2023-01-29T15:04:25;98733.09;;;-0.68;73.41
41624;BME280;27319;50.306;18.926;2023-01-29T15:08:22;98744.22;;;-0.63;72.97
41624;BME280;27319;50.306;18.926;2023-01-29T15:11:35;98743.13;;;-0.59;72.68
41624;BME280;27319;50.306;18.926;2023-01-29T15:15:19;98725.88;;;-0.80;73.59
41624;BME280;27319;50.306;18.926;2023-01-29T15:19:36;98732.50;;;-0.73;73.58
41624;BME280;27319;50.306;18.926;2023-01-29T15:23:40;98734.78;;;-0.67;73.88
41624;BME280;27319;50.306;18.926;2023-01-29T15:27:21;98743.56;;;-0.67;73.17
41624;BME280;27319;50.306;18.926;2023-01-29T15:30:41;98735.03;;;-0.56;73.09
41624;BME280;27319;50.306;18.926;2023-01-29T15:34:42;98743.13;;;-0.59;72.52
41624;BME280;27319;50.306;18.926;2023-01-29T15:38:43;98724.25;;;-0.67;73.44
41624;BME280;27319;50.306;18.926;2023-01-29T15:42:45;98727.44;;;-0.76;74.33
41624;BME280;27319;50.306;18.926;2023-01-29T15:46:35;98710.16;;;-0.82;74.72
41624;BME280;27319;50.306;18.926;2023-01-29T15:50:35;98699.19;;;-0.74;74.10
41624;BME280;27319;50.306;18.926;2023-01-29T15:54:36;98703.72;;;-0.76;74.12
41624;BME280;27319;50.306;18.926;2023-01-29T15:58:21;98698.25;;;-0.73;74.73
41624;BME280;27319;50.306;18.926;2023-01-29T16:01:27;98699.63;;;-0.82;74.49
41624;BME280;27319;50.306;18.926;2023-01-29T16:04:48;98698.94;;;-0.85;75.08
41624;BME280;27319;50.306;18.926;2023-01-29T16:08:50;98689.16;;;-0.83;75.17
41624;BME280;27319;50.306;18.926;2023-01-29T16:12:50;98690.28;;;-0.87;75.38
41624;BME280;27319;50.306;18.926;2023-01-29T16:16:50;98688.06;;;-0.79;74.89
41624;BME280;27319;50.306;18.926;2023-01-29T16:20:44;98684.59;;;-0.95;75.22
41624;BME280;27319;50.306;18.926;2023-01-29T16:24:44;98682.50;;;-0.75;74.84
41624;BME280;27319;50.306;18.926;2023-01-29T16:28:45;98674.88;;;-0.79;75.41
41624;BME280;27319;50.306;18.926;2023-01-29T16:32:45;98676.56;;;-0.78;75.53
41624;BME280;27319;50.306;18.926;2023-01-29T16:36:27;98676.13;;;-1.00;76.20
41624;BME280;27319;50.306;18.926;2023-01-29T16:39:33;98674.75;;;-1.07;76.54
41624;BME280;27319;50.306;18.926;2023-01-29T16:42:35;98672.63;;;-1.01;76.48
41624;BME280;27319;50.306;18.926;2023-01-29T16:46:04;98674.75;;;-1.07;76.08
41624;BME280;27319;50.306;18.926;2023-01-29T16:54:00;98685.41;;;-0.79;75.33
41624;BME280;27319;50.306;18.926;2023-01-29T16:58:02;98688.03;;;-1.09;76.03
41624;BME280;27319;50.306;18.926;2023-01-29T17:02:01;98688.16;;;-0.96;75.93
41624;BME280;27319;50.306;18.926;2023-01-29T17:06:11;98684.59;;;-0.95;76.36
41624;BME280;27319;50.306;18.926;2023-01-29T17:10:15;98690.66;;;-0.93;76.51
41624;BME280;27319;50.306;18.926;2023-01-29T17:14:15;98675.19;;;-0.99;76.59
41624;BME280;27319;50.306;18.926;2023-01-29T17:21:57;98669.81;;;-0.82;76.68
41624;BME280;27319;50.306;18.926;2023-01-29T17:25:58;98671.00;;;-0.88;76.69
41624;BME280;27319;50.306;18.926;2023-01-29T17:29:58;98666.66;;;-0.89;76.56
41624;BME280;27319;50.306;18.926;2023-01-29T17:33:59;98660.28;;;-0.85;77.10
41624;BME280;27319;50.306;18.926;2023-01-29T17:37:40;98656.72;;;-0.84;76.40
41624;BME280;27319;50.306;18.926;2023-01-29T17:44:47;98643.56;;;-0.99;76.08
41624;BME280;27319;50.306;18.926;2023-01-29T17:48:13;98629.97;;;-1.07;76.53
41624;BME280;27319;50.306;18.926;2023-01-29T17:51:16;98630.47;;;-1.01;76.59
41624;BME280;27319;50.306;18.926;2023-01-29T17:54:37;98640.78;;;-1.12;76.88
41624;BME280;27319;50.306;18.926;2023-01-29T17:58:38;98629.38;;;-1.12;77.06
41624;BME280;27319;50.306;18.926;2023-01-29T18:02:39;98638.75;;;-1.22;76.64
41624;BME280;27319;50.306;18.926;2023-01-29T18:06:40;98632.59;;;-1.07;77.00
41624;BME280;27319;50.306;18.926;2023-01-29T18:10:40;98632.81;;;-1.10;76.53
41624;BME280;27319;50.306;18.926;2023-01-29T18:14:41;98632.94;;;-0.98;76.79
41624;BME280;27319;50.306;18.926;2023-01-29T18:18:42;98633.13;;;-1.01;76.77
41624;BME280;27319;50.306;18.926;2023-01-29T18:22:43;98617.97;;;-0.97;76.94
41624;BME280;27319;50.306;18.926;2023-01-29T18:26:23;98620.63;;;-0.97;76.94
41624;BME280;27319;50.306;18.926;2023-01-29T18:29:45;98618.69;;;-1.09;77.71
41624;BME280;27319;50.306;18.926;2023-01-29T18:33:45;98624.19;;;-0.98;77.41
41624;BME280;27319;50.306;18.926;2023-01-29T18:37:26;98620.22;;;-1.05;77.98
41624;BME280;27319;50.306;18.926;2023-01-29T18:40:48;98618.25;;;-1.02;78.44
41624;BME280;27319;50.306;18.926;2023-01-29T18:44:52;98618.34;;;-1.03;78.76
41624;BME280;27319;50.306;18.926;2023-01-29T18:48:52;98620.91;;;-1.02;79.77
41624;BME280;27319;50.306;18.926;2023-01-29T18:52:53;98621.16;;;-1.22;80.48
41624;BME280;27319;50.306;18.926;2023-01-29T18:56:54;98615.38;;;-1.13;81.09
41624;BME280;27319;50.306;18.926;2023-01-29T19:00:55;98611.19;;;-1.01;80.43
41624;BME280;27319;50.306;18.926;2023-01-29T19:04:36;98607.56;;;-1.14;81.35
41624;BME280;27319;50.306;18.926;2023-01-29T19:07:56;98601.19;;;-1.10;81.58
41624;BME280;27319;50.306;18.926;2023-01-29T19:11:18;98596.97;;;-1.28;81.81
41624;BME280;27319;50.306;18.926;2023-01-29T19:14:19;98599.50;;;-1.11;81.45
41624;BME280;27319;50.306;18.926;2023-01-29T19:17:20;98589.31;;;-1.17;82.06
41624;BME280;27319;50.306;18.926;2023-01-29T19:20:41;98592.97;;;-1.20;81.38
41624;BME280;27319;50.306;18.926;2023-01-29T19:24:29;98587.47;;;-1.31;82.19
41624;BME280;27319;50.306;18.926;2023-01-29T19:27:35;98584.41;;;-1.23;82.16
41624;BME280;27319;50.306;18.926;2023-01-29T19:30:37;98582.88;;;-1.27;82.45
41624;BME280;27319;50.306;18.926;2023-01-29T19:33:57;98583.72;;;-1.27;82.62
41624;BME280;27319;50.306;18.926;2023-01-29T19:37:38;98586.69;;;-1.17;82.36
41624;BME280;27319;50.306;18.926;2023-01-29T19:40:39;98583.81;;;-1.28;81.98
41624;BME280;27319;50.306;18.926;2023-01-29T19:43:40;98588.84;;;-1.39;82.83
41624;BME280;27319;50.306;18.926;2023-01-29T19:46:42;98588.66;;;-1.36;82.49
41624;BME280;27319;50.306;18.926;2023-01-29T19:49:43;98575.72;;;-1.25;82.40
41624;BME280;27319;50.306;18.926;2023-01-29T19:52:44;98580.47;;;-1.16;81.91
41624;BME280;27319;50.306;18.926;2023-01-29T19:55:46;98572.50;;;-1.30;82.67
41624;BME280;27319;50.306;18.926;2023-01-29T19:59:09;98572.38;;;-1.43;83.11
41624;BME280;27319;50.306;18.926;2023-01-29T20:03:08;98565.38;;;-1.44;82.76
41624;BME280;27319;50.306;18.926;2023-01-29T20:07:09;98569.63;;;-1.41;83.09
41624;BME280;27319;50.306;18.926;2023-01-29T20:11:13;98563.97;;;-1.49;83.86
41624;BME280;27319;50.306;18.926;2023-01-29T20:15:13;98562.63;;;-1.56;83.05
41624;BME280;27319;50.306;18.926;2023-01-29T20:19:14;98555.69;;;-1.28;82.73
41624;BME280;27319;50.306;18.926;2023-01-29T20:23:16;98558.94;;;-1.38;82.66
41624;BME280;27319;50.306;18.926;2023-01-29T20:26:56;98561.56;;;-1.38;82.53
41624;BME280;27319;50.306;18.926;2023-01-29T20:30:18;98562.69;;;-1.42;82.57
41624;BME280;27319;50.306;18.926;2023-01-29T20:34:18;98570.50;;;-1.56;82.60
41624;BME280;27319;50.306;18.926;2023-01-29T20:38:00;98565.16;;;-1.39;82.26
41624;BME280;27319;50.306;18.926;2023-01-29T20:41:21;98568.63;;;-1.39;82.37
41624;BME280;27319;50.306;18.926;2023-01-29T20:45:22;98548.56;;;-1.41;82.52
41624;BME280;27319;50.306;18.926;2023-01-29T20:49:23;98549.94;;;-1.34;82.29
41624;BME280;27319;50.306;18.926;2023-01-29T20:53:23;98546.53;;;-1.36;82.51
41624;BME280;27319;50.306;18.926;2023-01-29T20:57:00;98537.38;;;-1.45;82.70
41624;BME280;27319;50.306;18.926;2023-01-29T21:00:02;98526.03;;;-1.45;82.64
41624;BME280;27319;50.306;18.926;2023-01-29T21:03:23;98525.75;;;-1.41;82.73
41624;BME280;27319;50.306;18.926;2023-01-29T21:07:24;98515.56;;;-1.47;82.86
41624;BME280;27319;50.306;18.926;2023-01-29T21:11:25;98503.28;;;-1.46;83.21
41624;BME280;27319;50.306;18.926;2023-01-29T21:15:26;98497.47;;;-1.37;82.32